createdAt,value
2024-03-12T00:04:35.113Z,7.7
2024-03-12T00:14:35.311Z,7.7
2024-03-12T00:34:35.734Z,7.7
2024-03-12T00:44:36.006Z,7.6
2024-03-12T01:04:36.354Z,7.5
2024-03-12T01:14:36.571Z,7.5
2024-03-12T01:24:36.757Z,7.4
2024-03-12T01:34:36.927Z,7.4
2024-03-12T01:44:37.155Z,7.4
2024-03-12T01:54:37.418Z,7.4
2024-03-12T02:04:37.509Z,7.4
2024-03-12T02:14:37.719Z,7.3
2024-03-12T02:24:37.933Z,7.3
2024-03-12T02:34:38.121Z,7.3
2024-03-12T02:44:38.313Z,7.3
2024-03-12T02:54:38.529Z,7.3
2024-03-12T03:04:38.702Z,7.3
2024-03-12T03:14:38.931Z,7.3
2024-03-12T03:24:39.113Z,7.3
2024-03-12T03:34:39.297Z,7.3
2024-03-12T03:54:39.759Z,7.4
2024-03-12T04:04:39.898Z,7.4
2024-03-12T04:14:40.134Z,7.4
2024-03-12T04:24:40.408Z,7.4
2024-03-12T04:34:40.516Z,7.4
2024-03-12T04:44:40.721Z,7.4
2024-03-12T04:54:40.964Z,7.3
2024-03-12T05:04:41.163Z,7.3
2024-03-12T05:14:41.311Z,7.3
2024-03-12T05:24:41.515Z,7.3
2024-03-12T05:34:41.726Z,7.3
2024-03-12T05:44:41.894Z,7.3
2024-03-12T05:54:42.172Z,7.3
2024-03-12T06:04:42.298Z,7.3
2024-03-12T06:14:42.530Z,7.3
2024-03-12T06:24:42.728Z,7.4
2024-03-12T08:34:45.297Z,7.6
2024-03-12T08:54:45.851Z,7.5
2024-03-12T11:14:48.464Z,8
2024-03-12T11:34:48.861Z,8.2
2024-03-12T11:44:49.079Z,8.2
2024-03-12T11:54:49.326Z,8.4
2024-03-12T12:04:49.455Z,8.5
2024-03-12T12:14:49.822Z,8.7
2024-03-12T12:24:49.873Z,8.8
2024-03-12T12:34:50.056Z,8.9
2024-03-12T12:54:50.482Z,9.3
2024-03-12T13:04:50.652Z,9.3
2024-03-12T13:14:50.860Z,9.4
2024-03-12T13:34:51.252Z,9.5
2024-03-12T13:44:51.445Z,9.4
2024-03-12T13:54:51.681Z,9.2
2024-03-12T14:14:52.043Z,9
2024-03-12T14:24:52.277Z,9
2024-03-12T14:34:52.441Z,9.2
2024-03-12T14:44:52.638Z,9.3
2024-03-12T14:54:54.600Z,9.3
2024-03-12T15:14:53.226Z,9.5
2024-03-12T15:24:53.450Z,9.5
2024-03-12T15:34:53.612Z,9.5
2024-03-12T15:44:53.826Z,9.6
2024-03-12T15:54:54.026Z,9.6
2024-03-12T16:04:54.215Z,9.6
2024-03-12T16:14:54.417Z,9.6
2024-03-12T16:24:54.624Z,9.4
2024-03-12T16:34:54.813Z,9.3
2024-03-12T16:44:55.013Z,9.2
2024-03-12T16:54:55.206Z,9.1
2024-03-12T17:04:55.398Z,9.1
2024-03-12T17:14:55.600Z,9
2024-03-12T17:24:55.891Z,8.9
2024-03-12T17:34:56.010Z,8.8
2024-03-12T17:44:56.195Z,8.7
2024-03-12T17:54:56.440Z,8.6
2024-03-12T18:04:56.601Z,8.6
2024-03-12T18:14:56.801Z,8.6
2024-03-12T18:24:57.014Z,8.6
2024-03-12T18:34:57.188Z,8.6
2024-03-12T18:44:57.424Z,8.7
2024-03-12T18:54:57.634Z,8.7
2024-03-12T19:14:57.971Z,8.7
2024-03-12T19:24:58.219Z,8.6
2024-03-12T19:34:58.432Z,8.5
2024-03-12T19:44:58.578Z,8.4
2024-03-12T19:54:58.775Z,8.2
2024-03-12T20:04:58.974Z,8.1
2024-03-12T20:14:59.194Z,7.9
2024-03-12T21:35:00.877Z,7.9
2024-03-12T21:45:00.993Z,8
2024-03-12T22:05:01.371Z,8
2024-03-12T22:15:01.565Z,8
2024-03-12T22:35:01.992Z,8.1
2024-03-12T23:15:02.748Z,8.4
2024-03-12T23:25:02.985Z,8.4
2024-03-12T23:35:03.160Z,8.4
2024-03-12T23:45:03.340Z,8.3
2024-03-12T23:55:03.557Z,8.3
